sensor_id;sensor_type;location;lat;lon;timestamp;P1;durP1;ratioP1;P2;durP2;ratioP2
6452;SDS011;3259;51.080;13.712;2022-12-29T00:01:30;0.05;;;0.00;;
6452;SDS011;3259;51.080;13.712;2022-12-29T00:04:19;0.10;;;0.00;;
6452;SDS011;3259;51.080;13.712;2022-12-29T00:07:08;0.20;;;0.08;;
6452;SDS011;3259;51.080;13.712;2022-12-29T00:09:56;0.00;;;0.00;;
6452;SDS011;3259;51.080;13.712;2022-12-29T00:12:45;0.10;;;0.00;;
6452;SDS011;3259;51.080;13.712;2022-12-29T00:15:53;0.10;;;0.10;;
6452;SDS011;3259;51.080;13.712;2022-12-29T00:18:41;0.00;;;0.00;;
6452;SDS011;3259;51.080;13.712;2022-12-29T00:21:30;0.00;;;0.00;;
6452;SDS011;3259;51.080;13.712;2022-12-29T00:24:37;0.00;;;0.00;;
6452;SDS011;3259;51.080;13.712;2022-12-29T00:27:43;0.28;;;0.00;;
6452;SDS011;3259;51.080;13.712;2022-12-29T00:30:54;0.00;;;0.00;;
6452;SDS011;3259;51.080;13.712;2022-12-29T00:34:04;0.00;;;0.00;;
6452;SDS011;3259;51.080;13.712;2022-12-29T00:37:12;0.00;;;0.00;;
6452;SDS011;3259;51.080;13.712;2022-12-29T00:40:01;0.15;;;0.03;;
6452;SDS011;3259;51.080;13.712;2022-12-29T00:43:12;0.00;;;0.00;;
6452;SDS011;3259;51.080;13.712;2022-12-29T00:46:20;0.00;;;0.00;;
6452;SDS011;3259;51.080;13.712;2022-12-29T00:49:09;0.00;;;0.00;;
6452;SDS011;3259;51.080;13.712;2022-12-29T00:52:17;0.08;;;0.00;;
6452;SDS011;3259;51.080;13.712;2022-12-29T00:55:06;0.00;;;0.00;;
6452;SDS011;3259;51.080;13.712;2022-12-29T00:57:55;0.08;;;0.08;;
6452;SDS011;3259;51.080;13.712;2022-12-29T01:00:44;0.10;;;0.00;;
6452;SDS011;3259;51.080;13.712;2022-12-29T01:03:35;0.00;;;0.00;;
6452;SDS011;3259;51.080;13.712;2022-12-29T01:06:24;0.10;;;0.10;;
6452;SDS011;3259;51.080;13.712;2022-12-29T01:09:13;0.52;;;0.20;;
6452;SDS011;3259;51.080;13.712;2022-12-29T01:12:20;0.00;;;0.00;;
6452;SDS011;3259;51.080;13.712;2022-12-29T01:15:27;3.20;;;0.00;;
6452;SDS011;3259;51.080;13.712;2022-12-29T01:18:15;0.00;;;0.00;;
6452;SDS011;3259;51.080;13.712;2022-12-29T01:21:05;0.65;;;0.00;;
6452;SDS011;3259;51.080;13.712;2022-12-29T01:23:54;0.00;;;0.00;;
6452;SDS011;3259;51.080;13.712;2022-12-29T01:26:43;5.13;;;0.10;;
6452;SDS011;3259;51.080;13.712;2022-12-29T01:29:32;0.00;;;0.00;;
6452;SDS011;3259;51.080;13.712;2022-12-29T01:32:20;0.00;;;0.00;;
6452;SDS011;3259;51.080;13.712;2022-12-29T01:35:09;0.00;;;0.00;;
6452;SDS011;3259;51.080;13.712;2022-12-29T01:37:59;1.08;;;0.00;;
6452;SDS011;3259;51.080;13.712;2022-12-29T01:40:48;0.00;;;0.00;;
6452;SDS011;3259;51.080;13.712;2022-12-29T01:43:40;0.22;;;0.00;;
6452;SDS011;3259;51.080;13.712;2022-12-29T01:46:30;0.35;;;0.10;;
6452;SDS011;3259;51.080;13.712;2022-12-29T01:49:22;0.15;;;0.00;;
6452;SDS011;3259;51.080;13.712;2022-12-29T01:52:12;0.00;;;0.00;;
6452;SDS011;3259;51.080;13.712;2022-12-29T01:55:03;0.00;;;0.00;;
6452;SDS011;3259;51.080;13.712;2022-12-29T01:57:53;1.75;;;0.00;;
6452;SDS011;3259;51.080;13.712;2022-12-29T02:00:44;0.10;;;0.00;;
6452;SDS011;3259;51.080;13.712;2022-12-29T02:03:32;0.10;;;0.10;;
6452;SDS011;3259;51.080;13.712;2022-12-29T02:06:22;0.00;;;0.00;;
6452;SDS011;3259;51.080;13.712;2022-12-29T02:09:12;0.47;;;0.00;;
6452;SDS011;3259;51.080;13.712;2022-12-29T02:12:02;0.08;;;0.08;;
6452;SDS011;3259;51.080;13.712;2022-12-29T02:14:53;0.00;;;0.00;;
6452;SDS011;3259;51.080;13.712;2022-12-29T02:17:50;0.13;;;0.00;;
6452;SDS011;3259;51.080;13.712;2022-12-29T02:24:11;0.10;;;0.00;;
6452;SDS011;3259;51.080;13.712;2022-12-29T02:33:38;0.10;;;0.00;;
6452;SDS011;3259;51.080;13.712;2022-12-29T02:36:37;0.43;;;0.30;;
6452;SDS011;3259;51.080;13.712;2022-12-29T02:39:32;0.85;;;0.00;;
6452;SDS011;3259;51.080;13.712;2022-12-29T02:42:28;0.63;;;0.00;;
6452;SDS011;3259;51.080;13.712;2022-12-29T02:45:22;0.00;;;0.00;;
6452;SDS011;3259;51.080;13.712;2022-12-29T02:48:16;0.00;;;0.00;;
6452;SDS011;3259;51.080;13.712;2022-12-29T02:51:09;0.00;;;0.00;;
6452;SDS011;3259;51.080;13.712;2022-12-29T02:54:02;0.00;;;0.00;;
6452;SDS011;3259;51.080;13.712;2022-12-29T02:57:12;0.00;;;0.00;;
6452;SDS011;3259;51.080;13.712;2022-12-29T03:00:05;0.00;;;0.00;;
6452;SDS011;3259;51.080;13.712;2022-12-29T03:03:03;0.00;;;0.00;;
6452;SDS011;3259;51.080;13.712;2022-12-29T03:06:05;0.15;;;0.15;;
6452;SDS011;3259;51.080;13.712;2022-12-29T03:09:06;0.00;;;0.00;;
6452;SDS011;3259;51.080;13.712;2022-12-29T03:12:07;0.00;;;0.00;;
6452;SDS011;3259;51.080;13.712;2022-12-29T03:15:04;0.00;;;0.00;;
6452;SDS011;3259;51.080;13.712;2022-12-29T03:18:15;0.00;;;0.00;;
6452;SDS011;3259;51.080;13.712;2022-12-29T03:21:09;0.00;;;0.00;;
6452;SDS011;3259;51.080;13.712;2022-12-29T03:24:00;0.00;;;0.00;;
6452;SDS011;3259;51.080;13.712;2022-12-29T03:26:49;0.75;;;0.00;;
6452;SDS011;3259;51.080;13.712;2022-12-29T03:29:39;1.55;;;0.00;;
6452;SDS011;3259;51.080;13.712;2022-12-29T03:32:31;0.00;;;0.00;;
6452;SDS011;3259;51.080;13.712;2022-12-29T03:35:22;0.55;;;0.05;;
6452;SDS011;3259;51.080;13.712;2022-12-29T03:38:15;0.00;;;0.00;;
6452;SDS011;3259;51.080;13.712;2022-12-29T03:41:05;0.00;;;0.00;;
6452;SDS011;3259;51.080;13.712;2022-12-29T03:43:56;0.08;;;0.08;;
6452;SDS011;3259;51.080;13.712;2022-12-29T03:46:44;0.00;;;0.00;;
6452;SDS011;3259;51.080;13.712;2022-12-29T03:49:33;0.65;;;0.00;;
6452;SDS011;3259;51.080;13.712;2022-12-29T03:52:25;0.10;;;0.00;;
6452;SDS011;3259;51.080;13.712;2022-12-29T03:55:15;0.75;;;0.00;;
6452;SDS011;3259;51.080;13.712;2022-12-29T03:58:04;3.58;;;0.00;;
6452;SDS011;3259;51.080;13.712;2022-12-29T04:00:52;0.00;;;0.00;;
6452;SDS011;3259;51.080;13.712;2022-12-29T04:03:41;0.10;;;0.03;;
6452;SDS011;3259;51.080;13.712;2022-12-29T04:06:30;0.15;;;0.00;;
6452;SDS011;3259;51.080;13.712;2022-12-29T04:09:18;0.00;;;0.00;;
6452;SDS011;3259;51.080;13.712;2022-12-29T04:12:08;0.00;;;0.00;;
6452;SDS011;3259;51.080;13.712;2022-12-29T04:14:57;0.00;;;0.00;;
6452;SDS011;3259;51.080;13.712;2022-12-29T04:17:45;0.00;;;0.00;;
6452;SDS011;3259;51.080;13.712;2022-12-29T04:20:34;0.00;;;0.00;;
6452;SDS011;3259;51.080;13.712;2022-12-29T04:23:40;0.00;;;0.00;;
6452;SDS011;3259;51.080;13.712;2022-12-29T04:26:29;0.00;;;0.00;;
6452;SDS011;3259;51.080;13.712;2022-12-29T04:29:19;0.00;;;0.00;;
6452;SDS011;3259;51.080;13.712;2022-12-29T04:32:08;0.00;;;0.00;;
6452;SDS011;3259;51.080;13.712;2022-12-29T04:34:56;0.00;;;0.00;;
6452;SDS011;3259;51.080;13.712;2022-12-29T04:37:45;0.00;;;0.00;;
6452;SDS011;3259;51.080;13.712;2022-12-29T04:40:33;0.00;;;0.00;;
6452;SDS011;3259;51.080;13.712;2022-12-29T04:43:22;0.00;;;0.00;;
6452;SDS011;3259;51.080;13.712;2022-12-29T04:46:12;0.00;;;0.00;;
6452;SDS011;3259;51.080;13.712;2022-12-29T04:49:01;0.00;;;0.00;;
6452;SDS011;3259;51.080;13.712;2022-12-29T04:51:55;0.00;;;0.00;;
6452;SDS011;3259;51.080;13.712;2022-12-29T04:54:43;1.55;;;0.00;;
6452;SDS011;3259;51.080;13.712;2022-12-29T04:57:32;0.00;;;0.00;;
6452;SDS011;3259;51.080;13.712;2022-12-29T05:00:21;0.82;;;0.10;;
6452;SDS011;3259;51.080;13.712;2022-12-29T05:03:11;0.00;;;0.00;;
6452;SDS011;3259;51.080;13.712;2022-12-29T05:05:59;0.00;;;0.00;;
6452;SDS011;3259;51.080;13.712;2022-12-29T05:08:48;0.00;;;0.00;;
6452;SDS011;3259;51.080;13.712;2022-12-29T05:11:37;0.00;;;0.00;;
6452;SDS011;3259;51.080;13.712;2022-12-29T05:14:25;0.00;;;0.00;;
6452;SDS011;3259;51.080;13.712;2022-12-29T05:17:14;0.20;;;0.00;;
6452;SDS011;3259;51.080;13.712;2022-12-29T05:20:06;0.00;;;0.00;;
6452;SDS011;3259;51.080;13.712;2022-12-29T05:22:55;0.00;;;0.00;;
6452;SDS011;3259;51.080;13.712;2022-12-29T05:25:44;0.15;;;0.00;;
6452;SDS011;3259;51.080;13.712;2022-12-29T05:28:33;0.00;;;0.00;;
6452;SDS011;3259;51.080;13.712;2022-12-29T05:31:21;1.98;;;0.15;;
6452;SDS011;3259;51.080;13.712;2022-12-29T05:34:10;4.90;;;0.00;;
6452;SDS011;3259;51.080;13.712;2022-12-29T05:37:01;0.00;;;0.00;;
6452;SDS011;3259;51.080;13.712;2022-12-29T05:39:49;0.00;;;0.00;;
6452;SDS011;3259;51.080;13.712;2022-12-29T05:42:38;0.10;;;0.00;;
6452;SDS011;3259;51.080;13.712;2022-12-29T05:45:27;0.00;;;0.00;;
6452;SDS011;3259;51.080;13.712;2022-12-29T05:48:16;0.00;;;0.00;;
6452;SDS011;3259;51.080;13.712;2022-12-29T05:51:05;0.00;;;0.00;;
6452;SDS011;3259;51.080;13.712;2022-12-29T05:53:54;0.00;;;0.00;;
6452;SDS011;3259;51.080;13.712;2022-12-29T05:56:43;0.00;;;0.00;;
6452;SDS011;3259;51.080;13.712;2022-12-29T05:59:32;0.00;;;0.00;;
6452;SDS011;3259;51.080;13.712;2022-12-29T06:02:21;0.00;;;0.00;;
6452;SDS011;3259;51.080;13.712;2022-12-29T06:05:10;0.00;;;0.00;;
6452;SDS011;3259;51.080;13.712;2022-12-29T06:07:58;0.00;;;0.00;;
6452;SDS011;3259;51.080;13.712;2022-12-29T06:10:49;0.00;;;0.00;;
6452;SDS011;3259;51.080;13.712;2022-12-29T06:13:37;0.00;;;0.00;;
6452;SDS011;3259;51.080;13.712;2022-12-29T06:16:26;0.00;;;0.00;;
6452;SDS011;3259;51.080;13.712;2022-12-29T06:19:15;0.00;;;0.00;;
6452;SDS011;3259;51.080;13.712;2022-12-29T06:22:03;0.00;;;0.00;;
6452;SDS011;3259;51.080;13.712;2022-12-29T06:24:53;0.00;;;0.00;;
6452;SDS011;3259;51.080;13.712;2022-12-29T06:27:51;0.00;;;0.00;;
6452;SDS011;3259;51.080;13.712;2022-12-29T06:30:40;0.00;;;0.00;;
6452;SDS011;3259;51.080;13.712;2022-12-29T06:33:31;0.00;;;0.00;;
6452;SDS011;3259;51.080;13.712;2022-12-29T06:36:20;0.00;;;0.00;;
6452;SDS011;3259;51.080;13.712;2022-12-29T06:39:09;0.00;;;0.00;;
6452;SDS011;3259;51.080;13.712;2022-12-29T06:41:59;0.00;;;0.00;;
6452;SDS011;3259;51.080;13.712;2022-12-29T06:44:49;0.00;;;0.00;;
6452;SDS011;3259;51.080;13.712;2022-12-29T06:47:38;0.00;;;0.00;;
6452;SDS011;3259;51.080;13.712;2022-12-29T06:50:27;0.00;;;0.00;;
6452;SDS011;3259;51.080;13.712;2022-12-29T06:53:16;0.00;;;0.00;;
6452;SDS011;3259;51.080;13.712;2022-12-29T06:56:05;0.00;;;0.00;;
6452;SDS011;3259;51.080;13.712;2022-12-29T06:58:54;0.52;;;0.00;;
6452;SDS011;3259;51.080;13.712;2022-12-29T07:01:44;0.00;;;0.00;;
6452;SDS011;3259;51.080;13.712;2022-12-29T07:04:33;0.00;;;0.00;;
6452;SDS011;3259;51.080;13.712;2022-12-29T07:07:21;0.00;;;0.00;;
6452;SDS011;3259;51.080;13.712;2022-12-29T07:10:10;0.00;;;0.00;;
6452;SDS011;3259;51.080;13.712;2022-12-29T07:12:59;0.00;;;0.00;;
6452;SDS011;3259;51.080;13.712;2022-12-29T07:15:47;0.30;;;0.00;;
6452;SDS011;3259;51.080;13.712;2022-12-29T07:18:37;0.05;;;0.00;;
6452;SDS011;3259;51.080;13.712;2022-12-29T07:21:26;0.13;;;0.00;;
6452;SDS011;3259;51.080;13.712;2022-12-29T07:24:15;0.00;;;0.00;;
6452;SDS011;3259;51.080;13.712;2022-12-29T07:27:04;1.30;;;0.00;;
6452;SDS011;3259;51.080;13.712;2022-12-29T07:29:52;0.40;;;0.00;;
6452;SDS011;3259;51.080;13.712;2022-12-29T07:32:41;3.20;;;0.00;;
6452;SDS011;3259;51.080;13.712;2022-12-29T07:35:31;0.40;;;0.05;;
6452;SDS011;3259;51.080;13.712;2022-12-29T07:38:21;0.00;;;0.00;;
6452;SDS011;3259;51.080;13.712;2022-12-29T07:41:10;0.00;;;0.00;;
6452;SDS011;3259;51.080;13.712;2022-12-29T07:43:58;0.00;;;0.00;;
6452;SDS011;3259;51.080;13.712;2022-12-29T07:46:47;0.20;;;0.10;;
6452;SDS011;3259;51.080;13.712;2022-12-29T07:49:43;0.73;;;0.00;;
6452;SDS011;3259;51.080;13.712;2022-12-29T07:52:33;0.05;;;0.05;;
6452;SDS011;3259;51.080;13.712;2022-12-29T07:55:21;0.20;;;0.00;;
6452;SDS011;3259;51.080;13.712;2022-12-29T07:58:10;0.10;;;0.00;;
6452;SDS011;3259;51.080;13.712;2022-12-29T08:00:58;0.10;;;0.10;;
6452;SDS011;3259;51.080;13.712;2022-12-29T08:03:47;0.00;;;0.00;;
6452;SDS011;3259;51.080;13.712;2022-12-29T08:06:42;0.00;;;0.00;;
6452;SDS011;3259;51.080;13.712;2022-12-29T08:09:33;0.00;;;0.00;;
6452;SDS011;3259;51.080;13.712;2022-12-29T08:12:22;0.00;;;0.00;;
6452;SDS011;3259;51.080;13.712;2022-12-29T08:15:11;0.20;;;0.00;;
6452;SDS011;3259;51.080;13.712;2022-12-29T08:18:00;0.15;;;0.00;;
6452;SDS011;3259;51.080;13.712;2022-12-29T08:20:49;0.38;;;0.10;;
6452;SDS011;3259;51.080;13.712;2022-12-29T08:23:41;0.28;;;0.10;;
6452;SDS011;3259;51.080;13.712;2022-12-29T08:26:31;0.00;;;0.00;;
6452;SDS011;3259;51.080;13.712;2022-12-29T08:29:20;1.35;;;0.20;;
6452;SDS011;3259;51.080;13.712;2022-12-29T08:32:09;0.00;;;0.00;;
6452;SDS011;3259;51.080;13.712;2022-12-29T08:34:57;0.20;;;0.10;;
6452;SDS011;3259;51.080;13.712;2022-12-29T08:37:47;0.25;;;0.00;;
6452;SDS011;3259;51.080;13.712;2022-12-29T08:40:35;0.05;;;0.05;;
6452;SDS011;3259;51.080;13.712;2022-12-29T08:43:26;0.10;;;0.10;;
6452;SDS011;3259;51.080;13.712;2022-12-29T08:46:15;0.00;;;0.00;;
6452;SDS011;3259;51.080;13.712;2022-12-29T08:49:04;4.85;;;0.10;;
6452;SDS011;3259;51.080;13.712;2022-12-29T08:51:53;0.00;;;0.00;;
6452;SDS011;3259;51.080;13.712;2022-12-29T08:54:41;0.10;;;0.10;;
6452;SDS011;3259;51.080;13.712;2022-12-29T08:57:30;0.00;;;0.00;;
6452;SDS011;3259;51.080;13.712;2022-12-29T09:00:23;1.70;;;0.00;;
6452;SDS011;3259;51.080;13.712;2022-12-29T09:03:14;0.00;;;0.00;;
6452;SDS011;3259;51.080;13.712;2022-12-29T09:06:22;1.17;;;0.17;;
6452;SDS011;3259;51.080;13.712;2022-12-29T09:09:11;0.10;;;0.10;;
6452;SDS011;3259;51.080;13.712;2022-12-29T09:12:00;0.10;;;0.08;;
6452;SDS011;3259;51.080;13.712;2022-12-29T09:14:49;0.03;;;0.03;;
6452;SDS011;3259;51.080;13.712;2022-12-29T09:17:39;3.38;;;0.10;;
6452;SDS011;3259;51.080;13.712;2022-12-29T09:20:31;1.05;;;0.47;;
6452;SDS011;3259;51.080;13.712;2022-12-29T09:23:20;0.45;;;0.10;;
6452;SDS011;3259;51.080;13.712;2022-12-29T09:26:09;1.13;;;0.08;;
6452;SDS011;3259;51.080;13.712;2022-12-29T09:28:58;1.77;;;0.10;;
6452;SDS011;3259;51.080;13.712;2022-12-29T09:31:46;3.20;;;0.15;;
6452;SDS011;3259;51.080;13.712;2022-12-29T09:34:37;1.83;;;0.10;;
6452;SDS011;3259;51.080;13.712;2022-12-29T09:37:25;1.63;;;0.45;;
6452;SDS011;3259;51.080;13.712;2022-12-29T09:40:18;0.00;;;0.00;;
6452;SDS011;3259;51.080;13.712;2022-12-29T09:46:32;0.38;;;0.20;;
6452;SDS011;3259;51.080;13.712;2022-12-29T09:49:24;1.50;;;0.13;;
6452;SDS011;3259;51.080;13.712;2022-12-29T09:52:16;0.35;;;0.17;;
6452;SDS011;3259;51.080;13.712;2022-12-29T09:55:09;0.10;;;0.10;;
6452;SDS011;3259;51.080;13.712;2022-12-29T09:58:00;0.43;;;0.10;;
6452;SDS011;3259;51.080;13.712;2022-12-29T10:00:53;1.85;;;0.20;;
6452;SDS011;3259;51.080;13.712;2022-12-29T10:03:49;0.20;;;0.10;;
6452;SDS011;3259;51.080;13.712;2022-12-29T10:06:40;0.10;;;0.10;;
6452;SDS011;3259;51.080;13.712;2022-12-29T10:09:53;0.20;;;0.10;;
6452;SDS011;3259;51.080;13.712;2022-12-29T10:12:51;0.75;;;0.20;;
6452;SDS011;3259;51.080;13.712;2022-12-29T10:15:49;0.10;;;0.10;;
6452;SDS011;3259;51.080;13.712;2022-12-29T10:22:05;0.57;;;0.28;;
6452;SDS011;3259;51.080;13.712;2022-12-29T10:24:59;1.48;;;0.25;;
6452;SDS011;3259;51.080;13.712;2022-12-29T10:27:51;0.20;;;0.20;;
6452;SDS011;3259;51.080;13.712;2022-12-29T10:30:42;0.20;;;0.20;;
6452;SDS011;3259;51.080;13.712;2022-12-29T10:33:32;0.75;;;0.30;;
6452;SDS011;3259;51.080;13.712;2022-12-29T10:36:26;0.20;;;0.10;;
6452;SDS011;3259;51.080;13.712;2022-12-29T10:39:20;1.27;;;0.10;;
6452;SDS011;3259;51.080;13.712;2022-12-29T10:42:13;2.92;;;0.10;;
6452;SDS011;3259;51.080;13.712;2022-12-29T10:45:04;0.20;;;0.20;;
6452;SDS011;3259;51.080;13.712;2022-12-29T10:47:56;0.10;;;0.10;;
6452;SDS011;3259;51.080;13.712;2022-12-29T10:50:47;1.98;;;0.20;;
6452;SDS011;3259;51.080;13.712;2022-12-29T10:53:38;0.32;;;0.10;;
6452;SDS011;3259;51.080;13.712;2022-12-29T10:56:31;0.22;;;0.13;;
6452;SDS011;3259;51.080;13.712;2022-12-29T10:59:23;0.13;;;0.10;;
6452;SDS011;3259;51.080;13.712;2022-12-29T11:02:19;0.10;;;0.10;;
6452;SDS011;3259;51.080;13.712;2022-12-29T11:05:27;0.10;;;0.10;;
6452;SDS011;3259;51.080;13.712;2022-12-29T11:08:20;0.15;;;0.10;;
6452;SDS011;3259;51.080;13.712;2022-12-29T11:11:11;1.05;;;0.15;;
6452;SDS011;3259;51.080;13.712;2022-12-29T11:14:02;0.13;;;0.10;;
6452;SDS011;3259;51.080;13.712;2022-12-29T11:16:58;2.30;;;0.17;;
6452;SDS011;3259;51.080;13.712;2022-12-29T11:19:47;0.40;;;0.15;;
6452;SDS011;3259;51.080;13.712;2022-12-29T11:22:35;0.20;;;0.10;;
6452;SDS011;3259;51.080;13.712;2022-12-29T11:25:32;0.43;;;0.03;;
6452;SDS011;3259;51.080;13.712;2022-12-29T11:28:21;0.88;;;0.10;;
6452;SDS011;3259;51.080;13.712;2022-12-29T11:31:15;0.93;;;0.15;;
6452;SDS011;3259;51.080;13.712;2022-12-29T11:34:07;0.55;;;0.13;;
6452;SDS011;3259;51.080;13.712;2022-12-29T11:36:58;0.40;;;0.15;;
6452;SDS011;3259;51.080;13.712;2022-12-29T11:39:50;3.85;;;0.30;;
6452;SDS011;3259;51.080;13.712;2022-12-29T11:42:40;4.13;;;0.70;;
6452;SDS011;3259;51.080;13.712;2022-12-29T11:45:31;1.45;;;0.65;;
6452;SDS011;3259;51.080;13.712;2022-12-29T11:48:24;5.65;;;0.40;;
6452;SDS011;3259;51.080;13.712;2022-12-29T11:51:22;1.55;;;0.30;;
6452;SDS011;3259;51.080;13.712;2022-12-29T11:54:13;0.35;;;0.32;;
6452;SDS011;3259;51.080;13.712;2022-12-29T11:57:08;0.43;;;0.32;;
6452;SDS011;3259;51.080;13.712;2022-12-29T11:59:58;0.40;;;0.40;;
6452;SDS011;3259;51.080;13.712;2022-12-29T12:02:50;1.98;;;0.40;;
6452;SDS011;3259;51.080;13.712;2022-12-29T12:05:43;1.45;;;0.20;;
6452;SDS011;3259;51.080;13.712;2022-12-29T12:08:38;0.25;;;0.25;;
6452;SDS011;3259;51.080;13.712;2022-12-29T12:11:31;12.30;;;1.88;;
6452;SDS011;3259;51.080;13.712;2022-12-29T12:14:23;14.18;;;2.40;;
6452;SDS011;3259;51.080;13.712;2022-12-29T12:17:16;4.38;;;1.40;;
6452;SDS011;3259;51.080;13.712;2022-12-29T12:20:10;4.57;;;1.45;;
6452;SDS011;3259;51.080;13.712;2022-12-29T12:23:06;8.77;;;1.40;;
6452;SDS011;3259;51.080;13.712;2022-12-29T12:26:10;5.95;;;1.48;;
6452;SDS011;3259;51.080;13.712;2022-12-29T12:29:01;3.70;;;1.50;;
6452;SDS011;3259;51.080;13.712;2022-12-29T12:31:54;5.03;;;1.05;;
6452;SDS011;3259;51.080;13.712;2022-12-29T12:34:45;4.07;;;0.90;;
6452;SDS011;3259;51.080;13.712;2022-12-29T12:37:43;5.80;;;1.42;;
6452;SDS011;3259;51.080;13.712;2022-12-29T12:40:58;2.95;;;0.88;;
6452;SDS011;3259;51.080;13.712;2022-12-29T12:43:51;1.45;;;0.98;;
6452;SDS011;3259;51.080;13.712;2022-12-29T12:53:19;4.32;;;0.95;;
6452;SDS011;3259;51.080;13.712;2022-12-29T12:56:18;4.18;;;0.80;;
6452;SDS011;3259;51.080;13.712;2022-12-29T12:59:32;2.53;;;0.93;;
6452;SDS011;3259;51.080;13.712;2022-12-29T13:02:33;1.10;;;0.60;;
6452;SDS011;3259;51.080;13.712;2022-12-29T13:05:29;1.15;;;0.70;;
6452;SDS011;3259;51.080;13.712;2022-12-29T13:08:27;2.25;;;0.95;;
6452;SDS011;3259;51.080;13.712;2022-12-29T13:11:28;6.38;;;0.85;;
6452;SDS011;3259;51.080;13.712;2022-12-29T13:14:28;4.72;;;0.80;;
6452;SDS011;3259;51.080;13.712;2022-12-29T13:17:30;1.35;;;0.70;;
6452;SDS011;3259;51.080;13.712;2022-12-29T13:20:25;1.10;;;0.57;;
6452;SDS011;3259;51.080;13.712;2022-12-29T13:23:18;1.00;;;0.63;;
6452;SDS011;3259;51.080;13.712;2022-12-29T13:26:15;1.92;;;0.73;;
6452;SDS011;3259;51.080;13.712;2022-12-29T13:29:11;2.72;;;0.52;;
6452;SDS011;3259;51.080;13.712;2022-12-29T13:32:11;0.80;;;0.50;;
6452;SDS011;3259;51.080;13.712;2022-12-29T13:35:12;0.90;;;0.40;;
6452;SDS011;3259;51.080;13.712;2022-12-29T13:38:09;2.00;;;0.60;;
6452;SDS011;3259;51.080;13.712;2022-12-29T13:41:00;1.73;;;0.82;;
6452;SDS011;3259;51.080;13.712;2022-12-29T13:43:51;0.75;;;0.50;;
6452;SDS011;3259;51.080;13.712;2022-12-29T13:46:42;0.63;;;0.50;;
6452;SDS011;3259;51.080;13.712;2022-12-29T13:49:34;1.92;;;0.70;;
6452;SDS011;3259;51.080;13.712;2022-12-29T13:52:24;0.63;;;0.52;;
6452;SDS011;3259;51.080;13.712;2022-12-29T13:55:18;3.00;;;0.52;;
6452;SDS011;3259;51.080;13.712;2022-12-29T13:58:12;3.88;;;0.68;;
6452;SDS011;3259;51.080;13.712;2022-12-29T14:01:07;2.63;;;0.50;;
6452;SDS011;3259;51.080;13.712;2022-12-29T14:03:58;2.65;;;0.63;;
6452;SDS011;3259;51.080;13.712;2022-12-29T14:06:59;2.60;;;0.50;;
6452;SDS011;3259;51.080;13.712;2022-12-29T14:09:50;3.90;;;0.77;;
6452;SDS011;3259;51.080;13.712;2022-12-29T14:12:40;3.53;;;0.40;;
6452;SDS011;3259;51.080;13.712;2022-12-29T14:15:30;2.15;;;0.55;;
6452;SDS011;3259;51.080;13.712;2022-12-29T14:18:20;0.43;;;0.43;;
6452;SDS011;3259;51.080;13.712;2022-12-29T14:21:11;4.30;;;1.15;;
6452;SDS011;3259;51.080;13.712;2022-12-29T14:24:38;1.60;;;0.60;;
6452;SDS011;3259;51.080;13.712;2022-12-29T14:30:50;15.80;;;1.58;;
6452;SDS011;3259;51.080;13.712;2022-12-29T14:33:40;7.50;;;0.70;;
6452;SDS011;3259;51.080;13.712;2022-12-29T14:36:33;1.70;;;0.82;;
6452;SDS011;3259;51.080;13.712;2022-12-29T14:39:30;2.25;;;0.60;;
6452;SDS011;3259;51.080;13.712;2022-12-29T14:42:21;7.28;;;0.68;;
6452;SDS011;3259;51.080;13.712;2022-12-29T14:45:21;1.08;;;0.65;;
6452;SDS011;3259;51.080;13.712;2022-12-29T14:48:21;2.05;;;0.57;;
6452;SDS011;3259;51.080;13.712;2022-12-29T14:51:20;3.95;;;0.60;;
6452;SDS011;3259;51.080;13.712;2022-12-29T14:54:42;2.13;;;0.77;;
6452;SDS011;3259;51.080;13.712;2022-12-29T14:57:38;2.05;;;0.43;;
6452;SDS011;3259;51.080;13.712;2022-12-29T15:00:29;2.67;;;0.60;;
6452;SDS011;3259;51.080;13.712;2022-12-29T15:03:20;1.00;;;0.60;;
6452;SDS011;3259;51.080;13.712;2022-12-29T15:06:11;0.95;;;0.63;;
6452;SDS011;3259;51.080;13.712;2022-12-29T15:09:04;8.15;;;0.95;;
6452;SDS011;3259;51.080;13.712;2022-12-29T15:12:04;3.30;;;0.90;;
6452;SDS011;3259;51.080;13.712;2022-12-29T15:15:02;9.20;;;1.05;;
6452;SDS011;3259;51.080;13.712;2022-12-29T15:18:20;9.90;;;1.00;;
6452;SDS011;3259;51.080;13.712;2022-12-29T15:21:11;10.80;;;0.80;;
6452;SDS011;3259;51.080;13.712;2022-12-29T15:24:02;3.15;;;0.73;;
6452;SDS011;3259;51.080;13.712;2022-12-29T15:26:53;1.88;;;0.80;;
6452;SDS011;3259;51.080;13.712;2022-12-29T15:29:44;2.25;;;0.73;;
6452;SDS011;3259;51.080;13.712;2022-12-29T15:32:38;4.93;;;0.40;;
6452;SDS011;3259;51.080;13.712;2022-12-29T15:35:29;3.22;;;1.27;;
6452;SDS011;3259;51.080;13.712;2022-12-29T15:38:21;1.10;;;0.47;;
6452;SDS011;3259;51.080;13.712;2022-12-29T15:41:22;1.85;;;0.70;;
6452;SDS011;3259;51.080;13.712;2022-12-29T15:44:15;2.22;;;0.52;;
6452;SDS011;3259;51.080;13.712;2022-12-29T15:47:19;1.60;;;0.60;;
6452;SDS011;3259;51.080;13.712;2022-12-29T15:50:14;1.48;;;1.38;;
6452;SDS011;3259;51.080;13.712;2022-12-29T15:53:09;2.40;;;0.57;;
6452;SDS011;3259;51.080;13.712;2022-12-29T15:55:59;2.70;;;0.80;;
6452;SDS011;3259;51.080;13.712;2022-12-29T15:58:50;6.05;;;0.75;;
6452;SDS011;3259;51.080;13.712;2022-12-29T16:01:40;6.50;;;0.47;;
6452;SDS011;3259;51.080;13.712;2022-12-29T16:04:31;5.18;;;0.50;;
6452;SDS011;3259;51.080;13.712;2022-12-29T16:07:40;2.97;;;0.88;;
6452;SDS011;3259;51.080;13.712;2022-12-29T16:10:40;4.60;;;0.70;;
6452;SDS011;3259;51.080;13.712;2022-12-29T16:13:31;2.35;;;0.70;;
6452;SDS011;3259;51.080;13.712;2022-12-29T16:16:27;1.35;;;0.35;;
6452;SDS011;3259;51.080;13.712;2022-12-29T16:19:17;1.10;;;0.55;;
6452;SDS011;3259;51.080;13.712;2022-12-29T16:22:11;1.33;;;0.50;;
6452;SDS011;3259;51.080;13.712;2022-12-29T16:25:02;0.45;;;0.45;;
6452;SDS011;3259;51.080;13.712;2022-12-29T16:27:52;2.05;;;0.50;;
6452;SDS011;3259;51.080;13.712;2022-12-29T16:30:41;0.75;;;0.47;;
6452;SDS011;3259;51.080;13.712;2022-12-29T16:33:35;0.75;;;0.43;;
6452;SDS011;3259;51.080;13.712;2022-12-29T16:36:28;5.38;;;0.35;;
6452;SDS011;3259;51.080;13.712;2022-12-29T16:39:21;1.65;;;0.50;;
6452;SDS011;3259;51.080;13.712;2022-12-29T16:48:59;0.43;;;0.40;;
6452;SDS011;3259;51.080;13.712;2022-12-29T16:51:48;2.13;;;0.35;;
6452;SDS011;3259;51.080;13.712;2022-12-29T16:54:38;2.55;;;0.40;;
6452;SDS011;3259;51.080;13.712;2022-12-29T16:57:28;5.47;;;0.50;;
6452;SDS011;3259;51.080;13.712;2022-12-29T17:00:20;0.73;;;0.40;;
6452;SDS011;3259;51.080;13.712;2022-12-29T17:03:10;0.40;;;0.40;;
6452;SDS011;3259;51.080;13.712;2022-12-29T17:05:59;1.85;;;0.28;;
6452;SDS011;3259;51.080;13.712;2022-12-29T17:08:49;0.40;;;0.35;;
6452;SDS011;3259;51.080;13.712;2022-12-29T17:11:39;1.48;;;0.20;;
6452;SDS011;3259;51.080;13.712;2022-12-29T17:14:51;0.28;;;0.20;;
6452;SDS011;3259;51.080;13.712;2022-12-29T17:17:42;0.43;;;0.28;;
6452;SDS011;3259;51.080;13.712;2022-12-29T17:20:32;0.55;;;0.32;;
6452;SDS011;3259;51.080;13.712;2022-12-29T17:23:21;0.65;;;0.32;;
6452;SDS011;3259;51.080;13.712;2022-12-29T17:26:12;0.73;;;0.20;;
6452;SDS011;3259;51.080;13.712;2022-12-29T17:29:02;1.80;;;0.15;;
6452;SDS011;3259;51.080;13.712;2022-12-29T17:31:51;0.75;;;0.38;;
6452;SDS011;3259;51.080;13.712;2022-12-29T17:34:40;1.75;;;0.10;;
6452;SDS011;3259;51.080;13.712;2022-12-29T17:37:31;1.17;;;0.30;;
6452;SDS011;3259;51.080;13.712;2022-12-29T17:40:23;1.35;;;0.10;;
6452;SDS011;3259;51.080;13.712;2022-12-29T17:43:13;0.52;;;0.32;;
6452;SDS011;3259;51.080;13.712;2022-12-29T17:46:05;0.20;;;0.20;;
6452;SDS011;3259;51.080;13.712;2022-12-29T17:48:54;2.20;;;0.20;;
6452;SDS011;3259;51.080;13.712;2022-12-29T17:51:44;0.20;;;0.20;;
6452;SDS011;3259;51.080;13.712;2022-12-29T17:54:33;0.95;;;0.30;;
6452;SDS011;3259;51.080;13.712;2022-12-29T17:57:22;1.42;;;0.08;;
6452;SDS011;3259;51.080;13.712;2022-12-29T18:00:13;3.67;;;0.17;;
6452;SDS011;3259;51.080;13.712;2022-12-29T18:03:05;2.28;;;0.20;;
6452;SDS011;3259;51.080;13.712;2022-12-29T18:05:54;5.47;;;0.52;;
6452;SDS011;3259;51.080;13.712;2022-12-29T18:08:43;1.60;;;0.20;;